Time;durP1;ratioP1;P1;durP2;ratioP2;P2;SDS_P1;SDS_P2;PMS_P1;PMS_P2;Temp;Humidity;BMP_temperature;BMP_pressure;BME280_temperature;BME280_humidity;BME280_pressure;Samples;Min_cycle;Max_cycle;Signal;HPM_P1;HPM_P2
2021/04/17 00:02:16;;;;;;;35.77;27.87;;;6.90;99.90;;;;;;4938090;28;20212;-82
2021/04/17 00:04:44;;;;;;;41.93;29.13;;;6.90;99.90;;;;;;4947269;28;20239;-82
2021/04/17 00:07:15;;;;;;;37.47;27.80;;;6.90;99.90;;;;;;4939362;28;20494;-84
2021/04/17 00:09:45;;;;;;;39.67;29.47;;;6.80;99.90;;;;;;4947687;28;20209;-84
2021/04/17 00:12:15;;;;;;;42.20;29.33;;;6.80;99.90;;;;;;4943428;28;20207;-84
2021/04/17 00:14:45;;;;;;;36.33;28.83;;;6.80;99.90;;;;;;4937730;28;20541;-81
2021/04/17 00:17:15;;;;;;;41.23;30.23;;;6.90;99.90;;;;;;4921141;29;21711;-82
2021/04/17 00:19:44;;;;;;;42.20;30.03;;;6.80;99.90;;;;;;4915911;29;20207;-83
2021/04/17 00:22:12;;;;;;;40.07;29.93;;;6.90;99.90;;;;;;4919059;29;20519;-82
2021/04/17 00:24:39;;;;;;;40.23;29.63;;;6.80;99.90;;;;;;4917892;29;20204;-81
2021/04/17 00:27:08;;;;;;;41.23;29.63;;;6.90;99.90;;;;;;4910395;29;20299;-84
2021/04/17 00:29:37;;;;;;;43.70;29.83;;;6.90;99.90;;;;;;4926841;28;20534;-82
2021/04/17 00:32:06;;;;;;;39.30;28.97;;;6.80;99.90;;;;;;4914486;29;20403;-81
2021/04/17 00:34:35;;;;;;;41.10;30.13;;;6.80;99.90;;;;;;4916441;29;20212;-82
2021/04/17 00:37:03;;;;;;;43.10;30.43;;;6.90;99.90;;;;;;4929571;29;20211;-83
2021/04/17 00:39:31;;;;;;;39.13;28.67;;;6.90;99.90;;;;;;4930785;29;20211;-83
2021/04/17 00:41:58;;;;;;;41.00;30.90;;;6.80;99.90;;;;;;4924759;29;20670;-83
2021/04/17 00:44:28;;;;;;;41.73;31.13;;;6.90;99.90;;;;;;4925864;29;20199;-83
2021/04/17 00:46:56;;;;;;;40.80;29.17;;;6.80;99.90;;;;;;4928281;29;20479;-83
2021/04/17 00:49:24;;;;;;;42.57;29.20;;;6.90;99.90;;;;;;4919707;29;20210;-82
2021/04/17 00:51:51;;;;;;;44.93;30.23;;;6.90;99.90;;;;;;4936520;29;20222;-83
2021/04/17 00:54:19;;;;;;;39.60;29.87;;;6.90;99.90;;;;;;4938451;28;20193;-82
2021/04/17 00:56:47;;;;;;;40.90;29.77;;;6.90;99.90;;;;;;4939863;28;20220;-81
2021/04/17 00:59:14;;;;;;;44.00;30.33;;;6.90;99.90;;;;;;4936553;29;20211;-83
2021/04/17 01:01:43;;;;;;;42.60;30.33;;;6.90;99.90;;;;;;4930481;28;20203;-83
2021/04/17 01:04:17;;;;;;;39.83;31.30;;;6.90;99.90;;;;;;4934154;28;20204;-82
2021/04/17 01:06:50;;;;;;;45.67;30.73;;;6.90;99.90;;;;;;4934424;29;20231;-83
2021/04/17 01:09:24;;;;;;;42.40;28.97;;;6.90;99.90;;;;;;4934476;29;20346;-82
2021/04/17 01:12:00;;;;;;;44.90;29.87;;;6.90;99.90;;;;;;4938639;28;20255;-81
2021/04/17 01:14:31;;;;;;;40.17;29.20;;;6.90;99.90;;;;;;4932161;28;20284;-82
2021/04/17 01:17:00;;;;;;;37.83;27.20;;;6.90;99.90;;;;;;4934175;28;20203;-84
2021/04/17 01:19:42;;;;;;;43.03;28.20;;;6.90;99.90;;;;;;4927594;29;20291;-83
2021/04/17 01:22:11;;;;;;;39.23;28.37;;;6.90;99.90;;;;;;4927819;29;20282;-83
2021/04/17 01:24:43;;;;;;;38.40;28.67;;;6.80;99.90;;;;;;4930177;28;20459;-82
2021/04/17 01:27:13;;;;;;;36.30;26.47;;;6.80;99.90;;;;;;4917990;28;20230;-82
2021/04/17 01:29:43;;;;;;;38.37;27.80;;;6.80;99.90;;;;;;4918884;28;20214;-83
2021/04/17 01:32:13;;;;;;;41.93;29.50;;;6.80;99.90;;;;;;4923280;29;20254;-83
2021/04/17 01:34:42;;;;;;;36.50;26.67;;;6.80;99.90;;;;;;4920305;29;20319;-82
2021/04/17 01:37:11;;;;;;;34.00;26.10;;;6.80;99.90;;;;;;4913560;28;20206;-83
2021/04/17 01:39:39;;;;;;;32.93;25.30;;;6.70;99.90;;;;;;4912795;28;20212;-83
2021/04/17 01:42:10;;;;;;;34.70;26.50;;;6.80;99.90;;;;;;4915643;29;20200;-83
2021/04/17 01:44:45;;;;;;;33.20;25.83;;;6.70;99.90;;;;;;4910946;28;20203;-81
2021/04/17 01:47:15;;;;;;;33.70;25.97;;;6.70;99.90;;;;;;4917220;29;20444;-82
2021/04/17 01:49:48;;;;;;;34.67;25.23;;;6.70;99.90;;;;;;4911366;29;20248;-82
2021/04/17 01:52:21;;;;;;;33.03;24.10;;;6.70;99.90;;;;;;4917822;28;20269;-83
2021/04/17 01:54:53;;;;;;;34.27;25.00;;;6.70;99.90;;;;;;4919263;29;20209;-81
2021/04/17 01:57:24;;;;;;;33.40;25.40;;;6.70;99.90;;;;;;4915334;28;20233;-81
2021/04/17 01:59:53;;;;;;;36.90;25.57;;;6.60;99.90;;;;;;4913427;29;20289;-82
2021/04/17 02:02:21;;;;;;;37.20;26.57;;;6.70;99.90;;;;;;4912539;28;20347;-83
2021/04/17 02:04:49;;;;;;;34.23;25.70;;;6.60;99.90;;;;;;4912643;29;20438;-82
2021/04/17 02:07:16;;;;;;;33.73;25.07;;;6.60;99.90;;;;;;4913932;28;20244;-82
2021/04/17 02:09:45;;;;;;;34.53;26.40;;;6.60;99.90;;;;;;4911852;29;20308;-83
2021/04/17 02:12:12;;;;;;;37.00;27.60;;;6.70;99.90;;;;;;4914966;29;20200;-82
2021/04/17 02:14:40;;;;;;;35.23;25.53;;;6.70;99.90;;;;;;4909712;28;20232;-82
2021/04/17 02:17:15;;;;;;;36.10;25.37;;;6.60;99.90;;;;;;4911860;29;20418;-83
2021/04/17 02:19:49;;;;;;;35.57;25.73;;;6.60;99.90;;;;;;4914657;28;20265;-83
2021/04/17 02:22:17;;;;;;;35.83;26.47;;;6.60;99.90;;;;;;4917441;29;20235;-83
2021/04/17 02:24:45;;;;;;;34.23;25.40;;;6.60;99.90;;;;;;4917460;28;20539;-82
2021/04/17 02:27:13;;;;;;;34.03;24.87;;;6.60;99.90;;;;;;4917196;28;20737;-82
2021/04/17 02:29:41;;;;;;;32.47;24.87;;;6.70;99.90;;;;;;4916459;28;20243;-82
2021/04/17 02:32:15;;;;;;;32.07;24.40;;;6.60;99.90;;;;;;4918219;28;20461;-82
2021/04/17 02:34:43;;;;;;;33.50;24.07;;;6.50;99.90;;;;;;4911987;29;20713;-82
2021/04/17 02:37:11;;;;;;;34.87;24.73;;;6.50;99.90;;;;;;4913150;29;21457;-83
2021/04/17 02:39:39;;;;;;;37.90;26.03;;;6.60;99.90;;;;;;4910355;29;20209;-82
2021/04/17 02:42:07;;;;;;;37.93;26.93;;;6.50;99.90;;;;;;4914296;29;20220;-82
2021/04/17 02:44:39;;;;;;;38.50;25.53;;;6.60;99.90;;;;;;4912605;29;20195;-82
2021/04/17 02:47:10;;;;;;;38.80;27.00;;;6.60;99.90;;;;;;4921688;29;20297;-81
2021/04/17 02:49:39;;;;;;;39.83;26.83;;;6.70;99.90;;;;;;4927603;29;20220;-83
2021/04/17 02:52:07;;;;;;;38.07;26.77;;;6.50;99.90;;;;;;4909361;29;20205;-83
2021/04/17 02:54:35;;;;;;;37.10;26.17;;;6.50;99.90;;;;;;4915161;29;20201;-81
2021/04/17 02:57:02;;;;;;;38.43;26.17;;;6.50;99.90;;;;;;4909478;29;20834;-82
2021/04/17 02:59:30;;;;;;;37.83;25.50;;;6.60;99.90;;;;;;4913504;29;20258;-83
2021/04/17 03:01:57;;;;;;;38.23;26.20;;;6.60;99.90;;;;;;4913990;29;20306;-81
2021/04/17 03:04:26;;;;;;;40.67;27.37;;;6.60;99.90;;;;;;4918462;29;20566;-83
2021/04/17 03:06:54;;;;;;;38.07;26.43;;;6.50;99.90;;;;;;4908320;29;20239;-81
2021/04/17 03:09:21;;;;;;;40.20;27.40;;;6.70;99.90;;;;;;4911448;29;20224;-80
2021/04/17 03:11:49;;;;;;;38.13;26.73;;;6.70;99.90;;;;;;4929566;28;20270;-81
2021/04/17 03:14:16;;;;;;;38.93;26.50;;;6.60;99.90;;;;;;4934062;28;20721;-81
2021/04/17 03:16:44;;;;;;;41.47;26.73;;;6.60;99.90;;;;;;4936795;28;20212;-83
2021/04/17 03:19:12;;;;;;;40.70;26.80;;;6.70;99.90;;;;;;4930768;29;20621;-84
2021/04/17 03:21:39;;;;;;;41.03;27.77;;;6.60;99.90;;;;;;4924200;29;20518;-83
2021/04/17 03:24:08;;;;;;;45.33;26.30;;;6.60;99.90;;;;;;4924655;29;20236;-83
2021/04/17 03:26:36;;;;;;;41.60;26.63;;;6.60;99.90;;;;;;4923558;29;20286;-82
2021/04/17 03:29:04;;;;;;;44.37;27.60;;;6.70;99.90;;;;;;4922474;29;20187;-83
2021/04/17 03:31:32;;;;;;;45.83;28.17;;;6.70;99.90;;;;;;4919923;28;20653;-82
2021/04/17 03:33:59;;;;;;;42.00;26.83;;;6.80;99.90;;;;;;4912902;29;20241;-82
2021/04/17 03:36:27;;;;;;;38.57;27.57;;;6.90;99.90;;;;;;4922006;28;20217;-81
2021/04/17 03:38:55;;;;;;;40.07;26.37;;;6.80;99.90;;;;;;4913675;29;20211;-83
2021/04/17 03:41:23;;;;;;;40.07;26.07;;;6.80;99.90;;;;;;4919553;29;20273;-83
2021/04/17 03:43:51;;;;;;;37.97;26.60;;;6.60;99.90;;;;;;4913700;29;20206;-81
2021/04/17 03:46:19;;;;;;;40.13;26.60;;;6.70;99.90;;;;;;4912838;29;20233;-82
2021/04/17 03:48:47;;;;;;;43.20;26.73;;;6.70;99.90;;;;;;4912808;29;20215;-82
2021/04/17 03:51:15;;;;;;;44.83;26.87;;;6.70;99.90;;;;;;4917015;28;21080;-81
2021/04/17 03:53:43;;;;;;;38.60;26.30;;;6.70;99.90;;;;;;4909986;28;20219;-82
2021/04/17 03:56:10;;;;;;;41.30;27.80;;;6.70;99.90;;;;;;4914160;29;20241;-84
2021/04/17 03:58:39;;;;;;;38.67;27.30;;;6.70;99.90;;;;;;4906786;29;20239;-83
2021/04/17 04:01:06;;;;;;;40.37;26.33;;;6.70;99.90;;;;;;4910944;29;20329;-83
2021/04/17 04:03:34;;;;;;;42.00;25.83;;;6.70;99.90;;;;;;4916130;29;20205;-84
2021/04/17 04:06:02;;;;;;;35.43;24.57;;;6.80;99.90;;;;;;4914327;29;20223;-83
2021/04/17 04:08:29;;;;;;;40.80;24.70;;;6.80;99.90;;;;;;4911967;28;20218;-85
2021/04/17 04:10:59;;;;;;;39.33;25.50;;;6.80;99.90;;;;;;4917190;28;20208;-82
2021/04/17 04:13:27;;;;;;;37.53;24.27;;;6.70;99.90;;;;;;4915120;28;20693;-83
2021/04/17 04:15:56;;;;;;;35.70;25.20;;;6.70;99.90;;;;;;4916542;28;20212;-82
2021/04/17 04:18:24;;;;;;;36.97;24.97;;;6.70;99.90;;;;;;4910963;28;20557;-82
2021/04/17 04:20:51;;;;;;;37.70;24.13;;;6.70;99.90;;;;;;4914787;29;20677;-82
2021/04/17 04:23:19;;;;;;;35.77;24.43;;;6.70;99.90;;;;;;4911390;28;20207;-82
2021/04/17 04:25:47;;;;;;;33.07;23.87;;;6.80;99.90;;;;;;4911581;28;20261;-81
2021/04/17 04:28:15;;;;;;;33.23;22.37;;;6.70;99.90;;;;;;4911156;28;20205;-84
2021/04/17 04:30:45;;;;;;;31.93;21.50;;;6.80;99.90;;;;;;4915106;29;20735;-82
2021/04/17 04:33:13;;;;;;;35.40;22.13;;;6.80;99.90;;;;;;4912356;28;20211;-83
2021/04/17 04:35:41;;;;;;;28.43;20.23;;;6.90;99.90;;;;;;4912856;29;20686;-82
2021/04/17 04:38:09;;;;;;;30.43;21.83;;;6.90;99.90;;;;;;4914367;29;20687;-81
2021/04/17 04:40:36;;;;;;;28.20;22.07;;;6.90;99.90;;;;;;4910957;29;20200;-83
2021/04/17 04:43:04;;;;;;;33.30;21.77;;;6.90;99.90;;;;;;4914570;28;20240;-82
2021/04/17 04:45:32;;;;;;;29.63;21.27;;;6.70;99.90;;;;;;4914778;29;20211;-83
2021/04/17 04:47:59;;;;;;;36.87;22.03;;;6.90;99.90;;;;;;4912898;29;20549;-82
2021/04/17 04:50:29;;;;;;;34.10;22.33;;;6.90;99.90;;;;;;4918307;29;20200;-83
2021/04/17 04:52:56;;;;;;;30.60;21.63;;;7.00;99.90;;;;;;4915806;29;20741;-83
2021/04/17 04:55:24;;;;;;;33.50;22.03;;;7.00;99.90;;;;;;4915436;29;20224;-82
2021/04/17 04:57:52;;;;;;;33.13;22.23;;;7.00;99.90;;;;;;4913487;28;20513;-82
2021/04/17 05:00:24;;;;;;;31.77;22.93;;;7.00;99.90;;;;;;4911555;28;20461;-83
2021/04/17 05:02:51;;;;;;;35.43;22.07;;;7.00;99.90;;;;;;4919504;29;20216;-83
2021/04/17 05:05:19;;;;;;;37.77;23.77;;;7.00;99.90;;;;;;4915424;28;20590;-82
2021/04/17 05:07:48;;;;;;;36.67;23.73;;;7.00;99.90;;;;;;4918008;29;20248;-82
2021/04/17 05:10:16;;;;;;;38.47;23.97;;;7.00;99.90;;;;;;4918797;28;20650;-84
2021/04/17 05:12:45;;;;;;;33.27;23.33;;;7.00;99.90;;;;;;4917180;28;20499;-82
2021/04/17 05:15:12;;;;;;;42.63;23.80;;;7.00;99.90;;;;;;4921442;28;20212;-82
2021/04/17 05:17:41;;;;;;;39.67;23.90;;;7.00;99.90;;;;;;4911206;29;20203;-83
2021/04/17 05:20:12;;;;;;;36.53;23.53;;;7.00;99.90;;;;;;4915288;29;20475;-82
2021/04/17 05:22:40;;;;;;;35.80;23.93;;;7.00;99.90;;;;;;4917377;29;20243;-81
2021/04/17 05:25:14;;;;;;;35.83;23.23;;;7.10;99.90;;;;;;4914941;29;20240;-81
2021/04/17 05:27:42;;;;;;;37.67;22.57;;;7.10;99.90;;;;;;4919013;29;20241;-82
2021/04/17 05:30:10;;;;;;;40.97;24.87;;;7.10;99.90;;;;;;4919666;28;20220;-82
2021/04/17 05:32:40;;;;;;;37.90;23.47;;;7.20;99.90;;;;;;4921793;29;20709;-82
2021/04/17 05:35:10;;;;;;;37.40;23.77;;;7.30;99.90;;;;;;4938702;28;20212;-82
2021/04/17 05:37:37;;;;;;;38.67;23.20;;;7.40;99.90;;;;;;4916617;28;20619;-83
2021/04/17 05:40:06;;;;;;;39.77;24.27;;;7.40;99.90;;;;;;4918642;29;20241;-82
2021/04/17 05:42:36;;;;;;;39.57;24.47;;;7.40;99.90;;;;;;4911803;29;20198;-81
2021/04/17 05:45:05;;;;;;;39.97;24.47;;;7.40;99.90;;;;;;4909873;29;20213;-83
2021/04/17 05:47:33;;;;;;;44.90;24.63;;;7.50;99.90;;;;;;4922952;28;20452;-83
2021/04/17 05:50:01;;;;;;;40.33;22.80;;;7.50;99.90;;;;;;4924957;28;20213;-82
2021/04/17 05:52:29;;;;;;;40.07;23.40;;;7.50;99.90;;;;;;4919866;28;20235;-82
2021/04/17 05:54:56;;;;;;;49.87;24.23;;;7.50;99.90;;;;;;4912861;29;20210;-82
2021/04/17 05:57:24;;;;;;;40.90;25.07;;;7.40;99.90;;;;;;4916569;28;20676;-82
2021/04/17 05:59:55;;;;;;;41.60;24.70;;;7.50;99.90;;;;;;4909887;28;20862;-83
2021/04/17 06:02:24;;;;;;;40.07;24.17;;;7.60;99.90;;;;;;4914705;29;20221;-84
2021/04/17 06:04:52;;;;;;;42.93;24.63;;;7.60;99.90;;;;;;4909123;29;20284;-83
2021/04/17 06:07:21;;;;;;;46.53;24.20;;;7.80;99.90;;;;;;4910897;29;20329;-83
2021/04/17 06:09:48;;;;;;;43.00;24.30;;;7.80;99.90;;;;;;4912230;29;20213;-83
2021/04/17 06:12:16;;;;;;;39.23;23.47;;;7.80;99.90;;;;;;4909901;29;20778;-83
2021/04/17 06:14:44;;;;;;;46.67;24.63;;;7.80;99.90;;;;;;4911651;29;20210;-83
2021/04/17 06:17:13;;;;;;;39.97;23.40;;;7.80;99.90;;;;;;4913558;29;20854;-82
2021/04/17 06:19:41;;;;;;;39.20;22.90;;;7.80;99.90;;;;;;4913628;29;20206;-81
2021/04/17 06:22:10;;;;;;;40.37;23.10;;;7.70;99.90;;;;;;4911558;29;20205;-81
2021/04/17 06:24:41;;;;;;;48.47;23.57;;;7.80;99.90;;;;;;4908781;29;20216;-84
2021/04/17 06:27:09;;;;;;;40.63;23.63;;;7.80;99.90;;;;;;4910285;29;20234;-82
2021/04/17 06:29:36;;;;;;;47.23;23.50;;;7.90;99.90;;;;;;4915586;28;20735;-82
2021/04/17 06:32:06;;;;;;;47.30;25.00;;;7.90;99.90;;;;;;4912852;29;20655;-82
2021/04/17 06:34:37;;;;;;;43.07;23.23;;;8.00;99.90;;;;;;4916317;29;20940;-82
2021/04/17 06:37:09;;;;;;;44.73;25.07;;;8.20;99.90;;;;;;4910807;28;20238;-82
2021/04/17 06:39:36;;;;;;;47.60;23.43;;;8.00;99.90;;;;;;4913000;28;20206;-83
2021/04/17 06:42:09;;;;;;;41.20;24.73;;;8.20;99.90;;;;;;4913310;29;20201;-81
2021/04/17 06:44:40;;;;;;;44.17;25.27;;;8.00;99.90;;;;;;4915337;29;20881;-83
2021/04/17 06:47:09;;;;;;;41.27;23.97;;;8.00;99.90;;;;;;4915862;29;20265;-81
2021/04/17 06:49:39;;;;;;;43.93;24.90;;;8.10;99.90;;;;;;4920118;29;20206;-81
2021/04/17 06:52:10;;;;;;;46.13;25.60;;;8.20;99.90;;;;;;4915845;29;20210;-82
2021/04/17 06:54:39;;;;;;;51.60;24.97;;;8.20;99.90;;;;;;4916734;29;20206;-82
2021/04/17 06:57:07;;;;;;;47.00;25.37;;;8.10;99.90;;;;;;4911589;29;20213;-82
2021/04/17 06:59:35;;;;;;;49.23;26.23;;;8.10;99.90;;;;;;4915989;29;20509;-83
2021/04/17 07:02:04;;;;;;;48.13;25.20;;;8.30;99.90;;;;;;4917755;29;20226;-81
2021/04/17 07:04:32;;;;;;;44.47;24.37;;;8.30;99.90;;;;;;4925658;29;20646;-82
2021/04/17 07:07:05;;;;;;;43.10;25.67;;;8.30;99.90;;;;;;4926594;29;20498;-85
2021/04/17 07:09:33;;;;;;;42.40;25.70;;;8.40;99.90;;;;;;4924393;28;20230;-84
2021/04/17 07:12:01;;;;;;;43.80;26.50;;;8.40;99.90;;;;;;4928008;29;20202;-83
2021/04/17 07:14:42;;;;;;;51.07;25.03;;;8.40;99.90;;;;;;4925830;29;20414;-81
2021/04/17 07:17:10;;;;;;;44.00;25.93;;;8.30;99.90;;;;;;4927213;29;20209;-83
2021/04/17 07:19:53;;;;;;;43.77;25.10;;;8.40;99.90;;;;;;4923657;29;20202;-82
2021/04/17 07:22:24;;;;;;;44.93;25.00;;;8.30;99.90;;;;;;4925610;28;20305;-81
2021/04/17 07:24:53;;;;;;;53.53;26.87;;;8.30;99.90;;;;;;4930115;29;20905;-83
2021/04/17 07:27:32;;;;;;;46.47;27.17;;;8.30;99.90;;;;;;4927819;29;20238;-82
2021/04/17 07:30:01;;;;;;;48.40;26.17;;;8.30;99.90;;;;;;4934222;28;20269;-84
2021/04/17 07:32:30;;;;;;;50.77;26.23;;;8.30;99.90;;;;;;4931994;28;20729;-80
2021/04/17 07:35:21;;;;;;;44.53;26.50;;;8.30;99.90;;;;;;4922273;28;20206;-82
2021/04/17 07:38:13;;;;;;;49.97;27.20;;;8.30;99.90;;;;;;4913623;29;20233;-83
2021/04/17 07:40:42;;;;;;;46.60;27.23;;;8.30;99.90;;;;;;4922896;28;20209;-81
2021/04/17 07:43:10;;;;;;;42.57;26.17;;;8.50;99.90;;;;;;4918177;29;20273;-83
2021/04/17 07:45:40;;;;;;;48.77;26.80;;;8.50;99.90;;;;;;4916397;28;20194;-82
2021/04/17 07:48:25;;;;;;;46.33;28.27;;;8.50;99.90;;;;;;4922486;29;20242;-84
2021/04/17 07:50:54;;;;;;;49.00;28.37;;;8.50;99.90;;;;;;4923473;29;20222;-83
2021/04/17 07:53:29;;;;;;;50.47;28.33;;;8.50;99.90;;;;;;4936433;29;20774;-84
2021/04/17 07:55:57;;;;;;;52.30;29.30;;;8.50;99.90;;;;;;4928050;28;20217;-84
2021/04/17 07:58:25;;;;;;;48.40;27.83;;;8.50;99.90;;;;;;4917747;28;20759;-82
2021/04/17 08:00:53;;;;;;;46.13;27.97;;;8.60;99.90;;;;;;4923116;29;20209;-83
2021/04/17 08:03:23;;;;;;;51.93;29.40;;;8.70;99.90;;;;;;4918144;28;20206;-82
2021/04/17 08:05:52;;;;;;;50.27;28.17;;;8.60;99.90;;;;;;4919083;28;20202;-83
2021/04/17 08:08:20;;;;;;;45.63;27.73;;;8.50;99.90;;;;;;4917257;28;20532;-83
2021/04/17 08:10:48;;;;;;;47.77;28.70;;;8.50;99.90;;;;;;4918772;29;21071;-80
2021/04/17 08:13:17;;;;;;;46.43;26.80;;;8.60;99.90;;;;;;4925143;28;20201;-83
2021/04/17 08:15:45;;;;;;;47.73;27.93;;;8.40;99.90;;;;;;4915162;29;20239;-82
2021/04/17 08:18:13;;;;;;;44.13;26.50;;;8.40;99.90;;;;;;4917020;29;20210;-82
2021/04/17 08:20:41;;;;;;;45.07;27.20;;;8.50;99.90;;;;;;4921546;29;20213;-83
2021/04/17 08:23:09;;;;;;;40.70;26.33;;;8.60;99.90;;;;;;4919087;29;20207;-82
2021/04/17 08:25:37;;;;;;;38.33;22.80;;;8.70;99.90;;;;;;4916729;29;20194;-80
2021/04/17 08:28:17;;;;;;;41.00;25.40;;;8.60;99.90;;;;;;4913172;29;20233;-82
2021/04/17 08:30:45;;;;;;;42.70;23.73;;;8.50;99.90;;;;;;4914804;29;20698;-83
2021/04/17 08:33:19;;;;;;;41.80;25.50;;;8.60;99.90;;;;;;4925598;28;20206;-80
2021/04/17 08:35:47;;;;;;;39.97;25.40;;;8.50;99.90;;;;;;4922375;29;20216;-83
2021/04/17 08:38:15;;;;;;;43.07;25.33;;;8.60;99.90;;;;;;4931722;29;20301;-82
2021/04/17 08:40:52;;;;;;;45.17;26.87;;;8.60;99.90;;;;;;4932809;29;20217;-82
2021/04/17 08:43:33;;;;;;;43.50;25.57;;;8.60;99.90;;;;;;4937038;28;20205;-83
2021/04/17 08:46:11;;;;;;;49.13;27.80;;;8.60;99.90;;;;;;4929206;28;20210;-84
2021/04/17 08:48:58;;;;;;;42.87;26.20;;;8.70;99.90;;;;;;4939328;28;20209;-82
2021/04/17 08:51:37;;;;;;;43.90;27.23;;;9.00;99.90;;;;;;4928868;29;20216;-84
2021/04/17 08:54:18;;;;;;;43.60;26.63;;;9.10;99.90;;;;;;4929089;28;20255;-84
2021/04/17 08:56:54;;;;;;;39.83;25.97;;;9.30;99.90;;;;;;4927736;29;20198;-83
2021/04/17 08:59:33;;;;;;;39.67;24.77;;;9.40;99.90;;;;;;4915796;28;20225;-82
2021/04/17 09:02:05;;;;;;;36.27;22.40;;;9.20;99.90;;;;;;4917143;29;20206;-84
2021/04/17 09:04:53;;;;;;;37.63;22.23;;;9.20;99.90;;;;;;4914753;29;20480;-84
2021/04/17 09:07:21;;;;;;;36.43;23.10;;;9.20;99.90;;;;;;4915355;28;20613;-83
2021/04/17 09:09:49;;;;;;;34.40;23.87;;;9.10;99.90;;;;;;4915550;29;20202;-83
2021/04/17 09:12:29;;;;;;;37.47;23.87;;;9.20;99.90;;;;;;4918465;28;20218;-83
2021/04/17 09:15:00;;;;;;;36.20;23.50;;;9.20;99.90;;;;;;4918506;28;20586;-83
2021/04/17 09:17:51;;;;;;;37.50;23.30;;;9.20;99.90;;;;;;4916220;28;20213;-83
2021/04/17 09:20:38;;;;;;;38.20;24.07;;;9.20;99.90;;;;;;4919027;28;20283;-82
2021/04/17 09:23:07;;;;;;;40.90;24.03;;;9.20;99.90;;;;;;4911874;29;20524;-84
2021/04/17 09:25:43;;;;;;;41.43;25.93;;;9.30;99.90;;;;;;4917245;29;20202;-83
2021/04/17 09:28:11;;;;;;;45.23;26.23;;;9.30;99.90;;;;;;4915985;29;20230;-85
2021/04/17 09:30:40;;;;;;;42.00;23.93;;;9.30;99.90;;;;;;4916156;29;20210;-82
2021/04/17 09:33:08;;;;;;;42.53;25.40;;;9.30;99.90;;;;;;4914708;29;20527;-85
2021/04/17 09:35:38;;;;;;;44.93;26.37;;;9.20;99.90;;;;;;4913711;28;20201;-84
2021/04/17 09:38:12;;;;;;;43.57;26.50;;;9.20;99.90;;;;;;4912860;29;20202;-85
2021/04/17 09:40:46;;;;;;;44.20;26.13;;;9.10;99.90;;;;;;4912559;29;20215;-84
2021/04/17 09:43:23;;;;;;;47.73;27.23;;;9.00;99.90;;;;;;4917569;29;20230;-83
2021/04/17 09:45:54;;;;;;;43.60;28.23;;;8.90;99.90;;;;;;4910655;28;20222;-83
2021/04/17 09:48:23;;;;;;;49.90;28.80;;;8.90;99.90;;;;;;4910243;28;20322;-83
2021/04/17 09:50:56;;;;;;;52.57;29.23;;;9.00;99.90;;;;;;4919232;28;20210;-84
2021/04/17 09:53:29;;;;;;;50.00;28.97;;;9.10;99.90;;;;;;4911867;29;20629;-83
2021/04/17 09:56:00;;;;;;;49.07;28.13;;;9.30;99.90;;;;;;4915876;28;20218;-84
2021/04/17 09:58:31;;;;;;;50.87;29.97;;;9.30;99.90;;;;;;4912266;28;20774;-82
2021/04/17 10:01:13;;;;;;;50.90;30.00;;;9.50;99.90;;;;;;4926824;28;20209;-85
2021/04/17 10:03:45;;;;;;;43.67;27.53;;;9.70;99.90;;;;;;4943071;28;20182;-84
2021/04/17 10:06:26;;;;;;;43.07;27.03;;;9.80;99.90;;;;;;4937873;28;20273;-84
2021/04/17 10:08:53;;;;;;;41.43;26.57;;;9.60;99.90;;;;;;4944949;28;20222;-82
2021/04/17 10:11:25;;;;;;;42.87;26.70;;;9.50;99.90;;;;;;4937361;28;20196;-83
2021/04/17 10:13:53;;;;;;;42.70;27.00;;;9.40;99.90;;;;;;4930913;28;20543;-81
2021/04/17 10:16:28;;;;;;;46.63;28.20;;;9.50;99.90;;;;;;4917942;28;20455;-84
2021/04/17 10:18:57;;;;;;;40.43;26.60;;;9.60;99.90;;;;;;4922280;28;20206;-83
2021/04/17 10:21:26;;;;;;;42.03;28.30;;;9.70;99.90;;;;;;4924921;28;21824;-83
2021/04/17 10:24:20;;;;;;;43.90;27.53;;;9.70;99.90;;;;;;4918773;28;20212;-84
2021/04/17 10:26:55;;;;;;;45.77;27.10;;;9.60;99.90;;;;;;4915674;28;20209;-83
2021/04/17 10:29:33;;;;;;;47.40;28.03;;;9.70;99.90;;;;;;4911036;29;21175;-84
2021/04/17 10:32:03;;;;;;;44.10;27.17;;;9.70;99.90;;;;;;4918939;29;20224;-84
2021/04/17 10:34:31;;;;;;;40.30;25.33;;;9.60;99.90;;;;;;4920400;29;20210;-84
2021/04/17 10:37:02;;;;;;;38.90;25.37;;;9.70;99.90;;;;;;4919809;28;20349;-82
2021/04/17 10:39:30;;;;;;;40.73;26.43;;;9.60;99.90;;;;;;4915496;29;20221;-84
2021/04/17 10:42:06;;;;;;;41.67;26.43;;;9.60;99.90;;;;;;4915796;29;20209;-83
2021/04/17 10:44:35;;;;;;;45.13;26.37;;;9.70;99.90;;;;;;4919867;29;20205;-82
2021/04/17 10:47:10;;;;;;;43.77;27.73;;;9.70;99.90;;;;;;4914183;29;20536;-82
2021/04/17 10:49:40;;;;;;;40.13;25.53;;;9.70;99.90;;;;;;4915521;29;20284;-83
2021/04/17 10:52:24;;;;;;;39.27;25.90;;;9.70;99.90;;;;;;4918301;29;20205;-84
2021/04/17 10:54:52;;;;;;;39.33;25.70;;;9.80;99.90;;;;;;4914499;29;20207;-82
2021/04/17 10:57:20;;;;;;;40.00;27.33;;;10.00;99.90;;;;;;4915530;29;20228;-82
2021/04/17 10:59:57;;;;;;;37.23;25.87;;;10.30;99.90;;;;;;4915685;29;20221;-83
2021/04/17 11:02:28;;;;;;;36.93;24.47;;;10.60;99.90;;;;;;4914410;29;20201;-84
2021/04/17 11:04:57;;;;;;;31.67;23.23;;;10.90;99.90;;;;;;4917684;29;20761;-82
2021/04/17 11:07:32;;;;;;;30.83;22.30;;;11.10;99.90;;;;;;4914043;29;20380;-82
2021/04/17 11:10:00;;;;;;;30.80;23.33;;;11.30;99.90;;;;;;4917083;29;20357;-84
2021/04/17 11:12:30;;;;;;;30.87;22.73;;;11.40;99.90;;;;;;4915036;29;20217;-83
2021/04/17 11:15:17;;;;;;;29.60;21.87;;;11.40;99.00;;;;;;4921964;29;20288;-84
2021/04/17 11:18:10;;;;;;;32.40;20.73;;;11.40;99.30;;;;;;4918867;29;20217;-84
2021/04/17 11:20:53;;;;;;;31.43;22.50;;;11.40;97.80;;;;;;4920432;29;20277;-84
2021/04/17 11:23:42;;;;;;;27.70;20.83;;;11.50;98.90;;;;;;4924628;29;20230;-83
2021/04/17 11:26:13;;;;;;;28.67;21.07;;;11.30;96.00;;;;;;4912999;29;20218;-83
2021/04/17 11:28:43;;;;;;;31.23;22.10;;;10.90;96.90;;;;;;4912412;29;20273;-82
2021/04/17 11:31:12;;;;;;;31.00;23.40;;;10.80;98.90;;;;;;4914713;29;20704;-85
2021/04/17 11:33:40;;;;;;;31.57;22.43;;;10.70;99.40;;;;;;4913088;29;20358;-84
2021/04/17 11:36:09;;;;;;;29.70;22.33;;;10.70;99.90;;;;;;4922805;29;20230;-83
2021/04/17 11:38:37;;;;;;;35.23;24.77;;;10.60;99.90;;;;;;4918273;29;20198;-81
2021/04/17 11:41:04;;;;;;;35.37;24.03;;;10.60;99.90;;;;;;4923789;29;20221;-83
2021/04/17 11:43:32;;;;;;;35.17;23.87;;;10.70;99.90;;;;;;4921491;29;20589;-82
2021/04/17 11:46:01;;;;;;;31.53;23.67;;;10.70;99.90;;;;;;4925545;29;20214;-83
2021/04/17 11:48:29;;;;;;;34.43;22.87;;;10.80;99.90;;;;;;4928883;29;20230;-83
2021/04/17 11:50:58;;;;;;;32.03;22.70;;;10.90;99.90;;;;;;4931287;29;20755;-84
2021/04/17 11:53:26;;;;;;;31.93;22.93;;;10.90;99.90;;;;;;4923164;28;20210;-81
2021/04/17 11:55:54;;;;;;;33.10;23.03;;;11.00;99.90;;;;;;4919315;29;20218;-85
2021/04/17 11:58:21;;;;;;;32.40;22.50;;;11.00;99.90;;;;;;4921420;28;20767;-82
2021/04/17 12:00:49;;;;;;;30.00;21.33;;;11.00;99.20;;;;;;4920544;29;20207;-83
2021/04/17 12:03:21;;;;;;;26.20;20.80;;;10.90;99.40;;;;;;4922562;29;20570;-83
2021/04/17 12:05:49;;;;;;;29.60;21.03;;;11.00;99.90;;;;;;4922294;28;20783;-82
2021/04/17 12:08:21;;;;;;;30.50;21.80;;;11.00;98.10;;;;;;4917000;28;20297;-83
2021/04/17 12:10:49;;;;;;;25.80;18.83;;;11.10;99.20;;;;;;4928897;29;20281;-84
2021/04/17 12:13:17;;;;;;;23.57;17.93;;;11.20;99.10;;;;;;4924636;28;20194;-83
2021/04/17 12:15:46;;;;;;;25.50;19.77;;;11.30;98.40;;;;;;4920388;29;20226;-83
2021/04/17 12:18:16;;;;;;;27.83;20.20;;;11.40;98.80;;;;;;4921410;29;20205;-82
2021/04/17 12:20:44;;;;;;;27.20;20.53;;;11.50;96.30;;;;;;4918112;29;20209;-85
2021/04/17 12:23:13;;;;;;;25.27;19.97;;;11.70;97.60;;;;;;4925307;29;20203;-83
2021/04/17 12:25:42;;;;;;;26.47;20.13;;;11.80;97.80;;;;;;4936303;28;20206;-84
2021/04/17 12:28:10;;;;;;;29.60;20.73;;;11.80;96.10;;;;;;4943731;28;20216;-85
2021/04/17 12:30:38;;;;;;;24.77;19.33;;;12.00;97.10;;;;;;4944318;28;20197;-84
2021/04/17 12:33:09;;;;;;;25.73;19.90;;;12.20;96.50;;;;;;4924174;29;20948;-85
2021/04/17 12:35:37;;;;;;;25.40;18.50;;;12.40;95.00;;;;;;4926842;28;20202;-84
2021/04/17 12:38:06;;;;;;;22.77;18.20;;;12.50;92.20;;;;;;4918156;29;20346;-84
2021/04/17 12:40:36;;;;;;;21.37;17.87;;;12.80;93.40;;;;;;4923250;29;20693;-83
2021/04/17 12:43:07;;;;;;;22.03;17.77;;;13.20;93.50;;;;;;4930434;29;20202;-85
2021/04/17 12:45:34;;;;;;;21.67;17.77;;;13.20;92.60;;;;;;4937637;29;20265;-84
2021/04/17 12:48:03;;;;;;;22.60;17.83;;;13.30;92.30;;;;;;4935552;29;20241;-84
2021/04/17 12:50:31;;;;;;;22.47;17.57;;;13.30;92.30;;;;;;4935955;28;20270;-84
2021/04/17 12:52:58;;;;;;;20.73;16.87;;;13.30;92.00;;;;;;4937456;29;20207;-83